Time;durP1;ratioP1;P1;durP2;ratioP2;P2;SDS_P1;SDS_P2;PMS_P1;PMS_P2;Temp;Humidity;BMP_temperature;BMP_pressure;BME280_temperature;BME280_humidity;BME280_pressure;Samples;Min_cycle;Max_cycle;Signal;HPM_P1;HPM_P2
2022/06/09 00:01:57;;;;;;;27.20;5.22;;;;;;;;;;5090781;28;20251;-68
2022/06/09 00:04:26;;;;;;;23.10;5.30;;;;;;;;;;5090510;28;20267;-69
2022/06/09 00:06:52;;;;;;;23.30;5.25;;;;;;;;;;5091811;28;20213;-68
2022/06/09 00:09:20;;;;;;;27.27;5.68;;;;;;;;;;5091195;28;20213;-69
2022/06/09 00:11:49;;;;;;;21.30;4.90;;;;;;;;;;5090344;28;20188;-68
2022/06/09 00:14:16;;;;;;;25.67;4.95;;;;;;;;;;5090431;28;20175;-69
2022/06/09 00:16:42;;;;;;;19.70;4.65;;;;;;;;;;5091491;28;20269;-69
2022/06/09 00:19:10;;;;;;;18.15;4.47;;;;;;;;;;5071410;28;20221;-69
2022/06/09 00:21:37;;;;;;;21.27;4.88;;;;;;;;;;5090169;28;20190;-69
2022/06/09 00:24:03;;;;;;;21.25;4.68;;;;;;;;;;5073666;28;20182;-69
2022/06/09 00:26:30;;;;;;;24.63;5.05;;;;;;;;;;5090240;28;20209;-69
2022/06/09 00:28:56;;;;;;;20.65;4.80;;;;;;;;;;5090297;28;20650;-69
2022/06/09 00:31:22;;;;;;;25.67;4.88;;;;;;;;;;5090267;28;20590;-68
2022/06/09 00:33:49;;;;;;;14.90;5.10;;;;;;;;;;5089781;28;20194;-69
2022/06/09 00:36:15;;;;;;;21.73;5.45;;;;;;;;;;5091219;28;20190;-68
2022/06/09 00:38:41;;;;;;;25.75;5.18;;;;;;;;;;5090354;28;20545;-69
2022/06/09 00:41:07;;;;;;;16.55;4.53;;;;;;;;;;5089996;28;20182;-68
2022/06/09 00:43:33;;;;;;;13.95;4.63;;;;;;;;;;5091419;28;20660;-69
2022/06/09 00:46:04;;;;;;;23.38;5.28;;;;;;;;;;5089543;28;20268;-69
2022/06/09 00:48:51;;;;;;;22.90;4.63;;;;;;;;;;5089133;28;20193;-68
2022/06/09 00:51:17;;;;;;;20.58;4.80;;;;;;;;;;5090813;28;20185;-69
2022/06/09 00:53:44;;;;;;;21.63;4.90;;;;;;;;;;5091058;28;20174;-69
2022/06/09 00:56:12;;;;;;;13.68;4.28;;;;;;;;;;5090937;28;20209;-69
2022/06/09 00:58:40;;;;;;;12.85;3.95;;;;;;;;;;5095913;28;20277;-69
2022/06/09 01:01:08;;;;;;;15.80;4.13;;;;;;;;;;5110805;28;20181;-68
2022/06/09 01:03:37;;;;;;;11.70;4.10;;;;;;;;;;5110650;28;20201;-68
2022/06/09 01:06:07;;;;;;;13.45;3.80;;;;;;;;;;5111252;28;20184;-69
2022/06/09 01:08:35;;;;;;;14.50;3.35;;;;;;;;;;5092627;28;20623;-69
2022/06/09 01:11:03;;;;;;;12.30;3.72;;;;;;;;;;5108742;28;20526;-69
2022/06/09 01:13:31;;;;;;;12.48;3.60;;;;;;;;;;5110800;28;20321;-69
2022/06/09 01:16:04;;;;;;;12.90;4.05;;;;;;;;;;5110883;28;20259;-68
2022/06/09 01:18:45;;;;;;;12.35;4.32;;;;;;;;;;5110768;28;20249;-69
2022/06/09 01:21:20;;;;;;;16.00;3.92;;;;;;;;;;5091865;28;20181;-69
2022/06/09 01:23:59;;;;;;;16.02;4.30;;;;;;;;;;5092349;28;20666;-69
2022/06/09 01:26:28;;;;;;;12.23;4.63;;;;;;;;;;5092387;28;20192;-69
2022/06/09 01:28:57;;;;;;;14.73;4.55;;;;;;;;;;5109920;28;20182;-68
2022/06/09 01:31:24;;;;;;;11.05;4.80;;;;;;;;;;5092489;28;20177;-68
2022/06/09 01:33:58;;;;;;;12.32;4.57;;;;;;;;;;5075095;28;20196;-69
2022/06/09 01:36:43;;;;;;;13.30;4.15;;;;;;;;;;5110540;27;20192;-68
2022/06/09 01:39:09;;;;;;;15.77;4.40;;;;;;;;;;5091781;28;20205;-68
2022/06/09 01:41:35;;;;;;;13.93;4.95;;;;;;;;;;5109432;28;20200;-69
2022/06/09 01:44:02;;;;;;;10.75;4.28;;;;;;;;;;5110517;28;20205;-69
2022/06/09 01:46:33;;;;;;;13.45;4.55;;;;;;;;;;5110506;28;20633;-69
2022/06/09 01:49:20;;;;;;;18.60;4.55;;;;;;;;;;5091142;28;20258;-69
2022/06/09 01:51:47;;;;;;;12.00;4.57;;;;;;;;;;5126309;27;20181;-68
2022/06/09 01:54:25;;;;;;;17.52;4.70;;;;;;;;;;5112375;27;20528;-68
2022/06/09 01:56:58;;;;;;;14.32;4.35;;;;;;;;;;5130709;27;20173;-69
2022/06/09 01:59:24;;;;;;;14.48;4.38;;;;;;;;;;5122842;27;20228;-68
2022/06/09 02:01:53;;;;;;;11.10;5.00;;;;;;;;;;5110285;28;20523;-68
2022/06/09 02:04:22;;;;;;;16.50;4.97;;;;;;;;;;5110069;28;20268;-69
2022/06/09 02:06:49;;;;;;;14.20;4.70;;;;;;;;;;5110277;28;20209;-68
2022/06/09 02:09:16;;;;;;;13.88;4.80;;;;;;;;;;5109375;28;20212;-69
2022/06/09 02:11:49;;;;;;;13.52;4.72;;;;;;;;;;5075474;28;20523;-69
2022/06/09 02:14:16;;;;;;;11.52;4.70;;;;;;;;;;5110320;28;20189;-69
2022/06/09 02:16:43;;;;;;;13.20;4.32;;;;;;;;;;5114559;27;20230;-68
2022/06/09 02:19:09;;;;;;;11.68;3.95;;;;;;;;;;5113565;28;20573;-68
2022/06/09 02:21:36;;;;;;;15.68;4.60;;;;;;;;;;5114208;28;20237;-68
2022/06/09 02:24:02;;;;;;;9.88;4.00;;;;;;;;;;5114413;28;20181;-68
2022/06/09 02:26:28;;;;;;;11.75;4.15;;;;;;;;;;5113910;27;20553;-69
2022/06/09 02:28:55;;;;;;;11.45;3.95;;;;;;;;;;5094932;28;20185;-69
2022/06/09 02:31:21;;;;;;;8.82;4.10;;;;;;;;;;5114160;28;20264;-68
2022/06/09 02:33:48;;;;;;;10.50;4.10;;;;;;;;;;5113917;27;20192;-69
2022/06/09 02:36:14;;;;;;;9.25;3.95;;;;;;;;;;5114160;28;20255;-69
2022/06/09 02:38:40;;;;;;;11.52;3.70;;;;;;;;;;5094561;28;20216;-68
2022/06/09 02:41:06;;;;;;;15.02;3.65;;;;;;;;;;5112992;27;20293;-68
2022/06/09 02:43:33;;;;;;;10.63;3.67;;;;;;;;;;5113892;27;20186;-69
2022/06/09 02:45:59;;;;;;;10.15;3.50;;;;;;;;;;5113748;28;20180;-68
2022/06/09 02:48:25;;;;;;;9.30;3.53;;;;;;;;;;5095084;28;20613;-68
2022/06/09 02:50:52;;;;;;;12.52;3.20;;;;;;;;;;5113600;28;20208;-68
2022/06/09 02:53:19;;;;;;;9.90;3.63;;;;;;;;;;5113845;28;20234;-68
2022/06/09 02:55:45;;;;;;;8.45;3.10;;;;;;;;;;5113604;28;20219;-68
2022/06/09 02:58:11;;;;;;;9.55;2.83;;;;;;;;;;5112526;28;20252;-68
2022/06/09 03:00:38;;;;;;;11.45;3.30;;;;;;;;;;5113463;28;20219;-68
2022/06/09 03:03:05;;;;;;;8.73;3.25;;;;;;;;;;5113312;28;20185;-69
2022/06/09 03:05:32;;;;;;;13.32;3.25;;;;;;;;;;5095182;28;20211;-69
2022/06/09 03:07:59;;;;;;;14.07;3.47;;;;;;;;;;5112476;28;20189;-68
2022/06/09 03:10:25;;;;;;;10.15;3.60;;;;;;;;;;5094995;28;20189;-68
2022/06/09 03:12:51;;;;;;;12.73;3.17;;;;;;;;;;5113478;27;20181;-69
2022/06/09 03:15:19;;;;;;;13.70;3.72;;;;;;;;;;5094899;28;20189;-68
2022/06/09 03:17:46;;;;;;;13.15;3.42;;;;;;;;;;5113442;27;20180;-68
2022/06/09 03:20:14;;;;;;;11.00;3.40;;;;;;;;;;5112499;28;20698;-68
2022/06/09 03:22:40;;;;;;;10.55;3.50;;;;;;;;;;5094716;28;20189;-69
2022/06/09 03:25:06;;;;;;;14.02;3.47;;;;;;;;;;5113217;28;20307;-68
2022/06/09 03:27:33;;;;;;;13.02;3.75;;;;;;;;;;5111354;27;20174;-69
2022/06/09 03:30:01;;;;;;;11.65;3.88;;;;;;;;;;5110172;28;20209;-69
2022/06/09 03:32:28;;;;;;;8.75;4.00;;;;;;;;;;5112316;28;20649;-69
2022/06/09 03:34:54;;;;;;;10.90;3.83;;;;;;;;;;5112875;28;20188;-68
2022/06/09 03:37:21;;;;;;;13.50;4.28;;;;;;;;;;5094249;28;20258;-68
2022/06/09 03:39:47;;;;;;;14.20;3.63;;;;;;;;;;5111851;28;20665;-69
2022/06/09 03:42:13;;;;;;;9.57;4.60;;;;;;;;;;5094511;28;20173;-69
2022/06/09 03:44:40;;;;;;;11.57;4.50;;;;;;;;;;5112509;28;20177;-69
2022/06/09 03:47:07;;;;;;;14.45;4.80;;;;;;;;;;5093718;27;20189;-68
2022/06/09 03:49:33;;;;;;;17.67;4.88;;;;;;;;;;5112390;28;20205;-68
2022/06/09 03:52:00;;;;;;;16.73;5.03;;;;;;;;;;5112380;28;20185;-69
2022/06/09 03:54:26;;;;;;;17.83;4.60;;;;;;;;;;5112460;28;20254;-68
2022/06/09 03:56:52;;;;;;;11.82;4.28;;;;;;;;;;5112247;28;20663;-69
2022/06/09 03:59:18;;;;;;;19.42;5.13;;;;;;;;;;5089104;28;20229;-68
2022/06/09 04:01:44;;;;;;;14.18;4.57;;;;;;;;;;5111590;28;20660;-69
2022/06/09 04:04:11;;;;;;;17.98;5.32;;;;;;;;;;5092466;28;20189;-69
2022/06/09 04:06:37;;;;;;;14.95;4.40;;;;;;;;;;5094030;28;20193;-69
2022/06/09 04:09:03;;;;;;;15.45;4.78;;;;;;;;;;5111485;27;20519;-69
2022/06/09 04:11:29;;;;;;;13.68;4.70;;;;;;;;;;5111952;27;20689;-69
2022/06/09 04:13:55;;;;;;;13.73;4.22;;;;;;;;;;5095087;28;20200;-69
2022/06/09 04:16:25;;;;;;;11.85;4.88;;;;;;;;;;5095125;28;20212;-68
2022/06/09 04:18:52;;;;;;;12.57;5.30;;;;;;;;;;5114446;27;20215;-69
2022/06/09 04:21:18;;;;;;;17.35;4.68;;;;;;;;;;5109794;28;20177;-69
2022/06/09 04:23:45;;;;;;;14.05;4.93;;;;;;;;;;5110955;28;20169;-69
2022/06/09 04:26:13;;;;;;;10.23;4.38;;;;;;;;;;5091834;28;20243;-69
2022/06/09 04:28:39;;;;;;;17.48;4.90;;;;;;;;;;5108686;28;20185;-69
2022/06/09 04:31:05;;;;;;;17.88;4.88;;;;;;;;;;5093192;28;20181;-69
2022/06/09 04:33:31;;;;;;;15.52;4.75;;;;;;;;;;5093146;28;20185;-69
2022/06/09 04:35:57;;;;;;;10.93;4.57;;;;;;;;;;5107232;27;20185;-70
2022/06/09 04:38:23;;;;;;;21.15;4.40;;;;;;;;;;5094954;28;20178;-68
2022/06/09 04:40:49;;;;;;;11.57;4.43;;;;;;;;;;5111568;28;20216;-69
2022/06/09 04:43:16;;;;;;;15.00;4.30;;;;;;;;;;5111553;28;20581;-69
2022/06/09 04:45:42;;;;;;;14.80;4.45;;;;;;;;;;5092871;28;20549;-69
2022/06/09 04:48:10;;;;;;;15.43;4.72;;;;;;;;;;5092038;28;20272;-69
2022/06/09 04:50:36;;;;;;;14.98;4.70;;;;;;;;;;5092746;28;20193;-68
2022/06/09 04:53:03;;;;;;;11.90;4.70;;;;;;;;;;5093089;28;20264;-69
2022/06/09 04:55:29;;;;;;;12.77;4.05;;;;;;;;;;5110601;28;20215;-70
2022/06/09 04:57:56;;;;;;;15.80;4.25;;;;;;;;;;5091392;28;20272;-68
2022/06/09 05:00:22;;;;;;;11.15;3.97;;;;;;;;;;5109730;27;20240;-69
2022/06/09 05:02:50;;;;;;;17.58;4.20;;;;;;;;;;5092848;28;20192;-69
2022/06/09 05:05:19;;;;;;;13.38;3.85;;;;;;;;;;5111106;28;20197;-69
2022/06/09 05:07:45;;;;;;;13.00;3.40;;;;;;;;;;5092064;28;20181;-69
2022/06/09 05:10:11;;;;;;;12.23;3.60;;;;;;;;;;5109896;28;20197;-69
2022/06/09 05:12:37;;;;;;;10.07;3.75;;;;;;;;;;5109861;27;20199;-69
2022/06/09 05:15:05;;;;;;;10.40;3.58;;;;;;;;;;5110965;28;20221;-70
2022/06/09 05:17:31;;;;;;;8.73;3.22;;;;;;;;;;5110843;28;20273;-69
2022/06/09 05:19:57;;;;;;;13.07;3.60;;;;;;;;;;5091869;28;20213;-69
2022/06/09 05:22:23;;;;;;;16.88;3.50;;;;;;;;;;5110787;27;20181;-69
2022/06/09 05:24:49;;;;;;;7.72;2.97;;;;;;;;;;5092689;28;20177;-70
2022/06/09 05:27:15;;;;;;;10.05;2.92;;;;;;;;;;5090875;28;20197;-71
2022/06/09 05:29:42;;;;;;;8.50;2.42;;;;;;;;;;5091885;28;20213;-70
2022/06/09 05:32:08;;;;;;;8.27;2.80;;;;;;;;;;5109005;28;20222;-72
2022/06/09 05:34:35;;;;;;;11.13;2.53;;;;;;;;;;5110391;28;20193;-71
2022/06/09 05:37:01;;;;;;;9.60;2.20;;;;;;;;;;5110658;28;20191;-72
2022/06/09 05:45:14;;;;;;;9.65;2.70;;;;;;;;;;5092976;27;20223;-71
2022/06/09 05:47:40;;;;;;;11.75;2.60;;;;;;;;;;5113862;27;20185;-70
2022/06/09 05:50:07;;;;;;;16.13;2.95;;;;;;;;;;5109967;28;20189;-71
2022/06/09 05:52:34;;;;;;;17.27;2.78;;;;;;;;;;5109905;28;20230;-71
2022/06/09 05:55:00;;;;;;;10.30;2.45;;;;;;;;;;5091531;28;20256;-71
2022/06/09 05:57:26;;;;;;;9.52;2.78;;;;;;;;;;5092316;28;20189;-71
2022/06/09 05:59:54;;;;;;;13.23;2.42;;;;;;;;;;5109511;28;20249;-72
2022/06/09 06:02:22;;;;;;;10.20;2.85;;;;;;;;;;5109414;28;20185;-69
2022/06/09 06:04:49;;;;;;;10.43;2.47;;;;;;;;;;5106741;28;20185;-68
2022/06/09 06:07:15;;;;;;;9.65;2.28;;;;;;;;;;5091071;28;20199;-69
2022/06/09 06:09:41;;;;;;;12.40;2.83;;;;;;;;;;5115821;28;20180;-71
2022/06/09 06:12:08;;;;;;;11.90;3.00;;;;;;;;;;5125124;28;20184;-71
2022/06/09 06:14:35;;;;;;;9.52;2.67;;;;;;;;;;5096159;28;20185;-70
2022/06/09 06:17:01;;;;;;;7.55;2.80;;;;;;;;;;5093315;28;20279;-72
2022/06/09 06:19:27;;;;;;;14.20;3.13;;;;;;;;;;5094410;28;20727;-71
2022/06/09 06:21:54;;;;;;;14.05;2.60;;;;;;;;;;5119012;28;20592;-71
2022/06/09 06:24:23;;;;;;;10.70;2.67;;;;;;;;;;5130151;28;20176;-69
2022/06/09 06:26:49;;;;;;;18.17;3.08;;;;;;;;;;5130057;28;20172;-68
2022/06/09 06:29:18;;;;;;;11.82;3.17;;;;;;;;;;5098472;28;20281;-69
2022/06/09 06:31:44;;;;;;;10.95;2.50;;;;;;;;;;5109784;28;20177;-69
2022/06/09 06:34:11;;;;;;;15.45;2.75;;;;;;;;;;5091626;28;20185;-69
2022/06/09 06:36:37;;;;;;;10.52;2.83;;;;;;;;;;5074706;28;20589;-68
2022/06/09 06:39:04;;;;;;;13.23;2.83;;;;;;;;;;5090452;28;20211;-70
2022/06/09 06:41:30;;;;;;;12.43;2.80;;;;;;;;;;5109299;28;20174;-70
2022/06/09 06:43:56;;;;;;;9.82;2.90;;;;;;;;;;5091495;28;20231;-69
2022/06/09 06:46:23;;;;;;;15.25;3.22;;;;;;;;;;5085932;28;21240;-68
2022/06/09 06:48:49;;;;;;;12.77;3.30;;;;;;;;;;5111546;28;20184;-70
2022/06/09 06:51:15;;;;;;;15.90;3.30;;;;;;;;;;5108262;28;20181;-68
2022/06/09 06:53:41;;;;;;;16.65;5.28;;;;;;;;;;5091133;28;20182;-71
2022/06/09 06:56:08;;;;;;;12.35;2.90;;;;;;;;;;5109326;28;20276;-68
2022/06/09 06:58:35;;;;;;;12.25;2.83;;;;;;;;;;5090111;28;20204;-69
2022/06/09 07:01:02;;;;;;;11.20;2.92;;;;;;;;;;5121779;27;20192;-70
2022/06/09 07:03:29;;;;;;;13.70;2.80;;;;;;;;;;5133712;27;20260;-71
2022/06/09 07:05:56;;;;;;;10.13;2.88;;;;;;;;;;5133597;27;20289;-69
2022/06/09 07:08:24;;;;;;;12.65;2.80;;;;;;;;;;5129887;27;20226;-69
2022/06/09 07:10:50;;;;;;;11.15;3.00;;;;;;;;;;5111158;27;20185;-68
2022/06/09 07:13:17;;;;;;;10.73;2.67;;;;;;;;;;5111267;27;20242;-69
2022/06/09 07:15:43;;;;;;;10.85;2.50;;;;;;;;;;5112987;28;20173;-69
2022/06/09 07:18:09;;;;;;;16.92;3.00;;;;;;;;;;5094928;28;20196;-69
2022/06/09 07:20:35;;;;;;;12.88;2.85;;;;;;;;;;5112292;27;20209;-70
2022/06/09 07:23:02;;;;;;;16.75;2.88;;;;;;;;;;5112611;28;20178;-69
2022/06/09 07:25:28;;;;;;;13.00;2.70;;;;;;;;;;5112536;28;20669;-69
2022/06/09 07:27:55;;;;;;;13.43;2.60;;;;;;;;;;5094432;28;20264;-70
2022/06/09 07:30:22;;;;;;;8.25;2.53;;;;;;;;;;5112435;27;20185;-73
2022/06/09 07:32:49;;;;;;;14.00;2.95;;;;;;;;;;5092325;28;20185;-74
2022/06/09 07:35:17;;;;;;;13.80;2.70;;;;;;;;;;5094150;28;20660;-71
2022/06/09 07:37:49;;;;;;;12.18;2.20;;;;;;;;;;5112203;28;20192;-71
2022/06/09 07:40:16;;;;;;;7.75;2.10;;;;;;;;;;5090658;28;20205;-69
2022/06/09 07:42:42;;;;;;;14.70;2.97;;;;;;;;;;5090753;28;20226;-69
2022/06/09 07:45:09;;;;;;;13.70;2.40;;;;;;;;;;5092470;28;20190;-68
2022/06/09 07:47:36;;;;;;;13.40;2.35;;;;;;;;;;5111574;28;20177;-67
2022/06/09 07:50:03;;;;;;;19.17;2.83;;;;;;;;;;5111929;28;20189;-68
2022/06/09 07:52:29;;;;;;;11.75;2.78;;;;;;;;;;5111230;28;20220;-68
2022/06/09 07:54:55;;;;;;;12.13;3.22;;;;;;;;;;5111644;28;20713;-66
2022/06/09 07:57:21;;;;;;;14.05;2.88;;;;;;;;;;5111291;28;20201;-68
2022/06/09 07:59:47;;;;;;;14.50;2.65;;;;;;;;;;5111754;28;20901;-67
2022/06/09 08:02:13;;;;;;;8.57;2.50;;;;;;;;;;5125500;27;20191;-68
2022/06/09 08:04:39;;;;;;;19.45;2.90;;;;;;;;;;5114033;27;20180;-67
2022/06/09 08:07:06;;;;;;;9.00;2.28;;;;;;;;;;5132528;27;20168;-67
2022/06/09 08:09:32;;;;;;;13.98;3.10;;;;;;;;;;5113428;27;20759;-67
2022/06/09 08:11:59;;;;;;;10.45;3.00;;;;;;;;;;5112006;28;20274;-67
2022/06/09 08:14:26;;;;;;;9.27;2.78;;;;;;;;;;5111635;28;20189;-67
2022/06/09 08:16:52;;;;;;;12.48;2.35;;;;;;;;;;5111551;27;20192;-66
2022/06/09 08:19:19;;;;;;;13.00;2.63;;;;;;;;;;5090882;28;20698;-67
2022/06/09 08:21:45;;;;;;;17.25;2.75;;;;;;;;;;5111476;28;20191;-67
2022/06/09 08:24:11;;;;;;;10.13;2.78;;;;;;;;;;5093611;28;20667;-75
2022/06/09 08:26:38;;;;;;;10.77;2.55;;;;;;;;;;5093133;28;20185;-67
2022/06/09 08:29:04;;;;;;;17.83;2.83;;;;;;;;;;5110678;28;20184;-68
2022/06/09 08:31:30;;;;;;;10.10;2.47;;;;;;;;;;5076397;28;20193;-67
2022/06/09 08:33:56;;;;;;;13.65;3.28;;;;;;;;;;5111310;28;20547;-67
2022/06/09 08:36:23;;;;;;;10.85;3.08;;;;;;;;;;5093482;28;20564;-68
2022/06/09 08:38:49;;;;;;;11.57;2.63;;;;;;;;;;5110602;28;20209;-67
2022/06/09 08:41:17;;;;;;;14.98;2.53;;;;;;;;;;5110943;28;20169;-69
2022/06/09 08:43:47;;;;;;;14.02;2.60;;;;;;;;;;5092786;28;20291;-68
2022/06/09 08:46:31;;;;;;;13.25;2.50;;;;;;;;;;5111174;28;20196;-68
2022/06/09 08:49:00;;;;;;;12.82;3.00;;;;;;;;;;5110810;28;20238;-68
2022/06/09 08:51:32;;;;;;;12.48;2.58;;;;;;;;;;5110276;28;20205;-68
2022/06/09 08:54:04;;;;;;;10.48;2.75;;;;;;;;;;5111017;28;20667;-68
2022/06/09 08:56:31;;;;;;;13.45;2.60;;;;;;;;;;5110975;28;20264;-67
2022/06/09 08:59:12;;;;;;;13.00;2.60;;;;;;;;;;5110588;28;20249;-69
2022/06/09 09:01:44;;;;;;;16.05;2.67;;;;;;;;;;5109962;28;20724;-67
2022/06/09 09:04:22;;;;;;;17.50;2.65;;;;;;;;;;5110859;27;20234;-68
2022/06/09 09:07:08;;;;;;;17.67;3.10;;;;;;;;;;5092472;28;20644;-69
2022/06/09 09:09:36;;;;;;;13.27;3.17;;;;;;;;;;5093362;28;20193;-68
2022/06/09 09:12:13;;;;;;;9.65;2.47;;;;;;;;;;5109980;28;20185;-67
2022/06/09 09:14:42;;;;;;;9.57;2.35;;;;;;;;;;5092178;28;20200;-68
2022/06/09 09:17:24;;;;;;;14.45;2.88;;;;;;;;;;5110734;28;20188;-68
2022/06/09 09:19:53;;;;;;;12.30;2.92;;;;;;;;;;5092279;28;20200;-68
2022/06/09 09:22:28;;;;;;;16.00;2.60;;;;;;;;;;5109941;28;20181;-67
2022/06/09 09:24:54;;;;;;;15.35;2.72;;;;;;;;;;5110095;28;20704;-68
2022/06/09 09:27:25;;;;;;;10.57;3.60;;;;;;;;;;5110710;27;20218;-68
2022/06/09 09:29:58;;;;;;;14.98;2.83;;;;;;;;;;5110688;28;20193;-68
2022/06/09 09:32:29;;;;;;;12.43;3.08;;;;;;;;;;5091573;28;20585;-68
2022/06/09 09:34:56;;;;;;;13.98;3.25;;;;;;;;;;5110669;28;20189;-69
2022/06/09 09:37:25;;;;;;;13.43;3.30;;;;;;;;;;5110671;28;20528;-69
2022/06/09 09:39:55;;;;;;;13.05;3.30;;;;;;;;;;5110198;27;20204;-68
2022/06/09 09:42:23;;;;;;;14.35;4.00;;;;;;;;;;5091443;28;20189;-68
2022/06/09 09:45:00;;;;;;;13.00;3.75;;;;;;;;;;5090834;27;20185;-68
2022/06/09 09:47:28;;;;;;;12.40;4.03;;;;;;;;;;5110578;28;20185;-67
2022/06/09 09:49:57;;;;;;;17.08;4.13;;;;;;;;;;5092161;28;20189;-69
2022/06/09 09:52:37;;;;;;;13.75;3.85;;;;;;;;;;5110436;28;20716;-69
2022/06/09 09:55:04;;;;;;;12.50;4.03;;;;;;;;;;5109875;28;20185;-68
2022/06/09 09:57:30;;;;;;;16.58;3.70;;;;;;;;;;5110546;28;20192;-69
2022/06/09 10:00:00;;;;;;;7.97;3.65;;;;;;;;;;5091687;28;20587;-69
2022/06/09 10:08:36;;;;;;;18.38;3.78;;;;;;;;;;5092058;28;20229;-68
2022/06/09 10:11:53;;;;;;;16.10;4.15;;;;;;;;;;5091881;28;20688;-68
2022/06/09 10:13:49;;;;;;;10.55;3.22;;;;;;;;;;5109261;28;20538;-68
2022/06/09 10:16:16;;;;;;;16.55;4.38;;;;;;;;;;5110210;28;20181;-68
2022/06/09 10:18:45;;;;;;;14.63;3.92;;;;;;;;;;5110189;28;20718;-68
2022/06/09 10:21:13;;;;;;;19.38;3.58;;;;;;;;;;5110122;28;20169;-68
2022/06/09 10:23:51;;;;;;;12.43;3.85;;;;;;;;;;5074317;28;20193;-68
2022/06/09 10:26:30;;;;;;;14.48;4.50;;;;;;;;;;5109971;28;20185;-69
2022/06/09 10:28:56;;;;;;;16.23;4.47;;;;;;;;;;5109270;28;20229;-68
2022/06/09 10:31:28;;;;;;;12.48;3.78;;;;;;;;;;5109777;28;20181;-69
2022/06/09 10:34:00;;;;;;;17.42;4.05;;;;;;;;;;5106515;28;20193;-69
2022/06/09 10:36:42;;;;;;;15.15;3.80;;;;;;;;;;5111400;28;20181;-69
2022/06/09 10:39:31;;;;;;;13.60;3.70;;;;;;;;;;5113999;28;20244;-68
2022/06/09 10:42:00;;;;;;;18.92;3.67;;;;;;;;;;5113472;28;20188;-68
2022/06/09 10:44:31;;;;;;;11.48;3.60;;;;;;;;;;5092775;28;20219;-69
2022/06/09 10:55:47;;;;;;;18.83;3.70;;;;;;;;;;5112412;27;20189;-69
2022/06/09 10:58:40;;;;;;;11.65;3.88;;;;;;;;;;5095346;28;20558;-68
2022/06/09 11:01:07;;;;;;;20.77;4.53;;;;;;;;;;5090782;28;20193;-68
2022/06/09 11:03:40;;;;;;;18.52;4.78;;;;;;;;;;5094519;28;20899;-68
2022/06/09 11:06:06;;;;;;;18.02;3.88;;;;;;;;;;5083611;28;20190;-68
2022/06/09 11:08:42;;;;;;;15.35;3.75;;;;;;;;;;5113070;28;20183;-68
2022/06/09 11:11:18;;;;;;;21.90;3.95;;;;;;;;;;5113125;28;20180;-69
2022/06/09 11:13:44;;;;;;;13.80;3.85;;;;;;;;;;5113151;27;20201;-69
2022/06/09 11:16:19;;;;;;;13.82;3.20;;;;;;;;;;5093721;28;20181;-69
2022/06/09 11:18:54;;;;;;;12.82;3.33;;;;;;;;;;5113007;28;20858;-68
2022/06/09 11:21:22;;;;;;;15.98;3.88;;;;;;;;;;5128057;27;20176;-68
2022/06/09 11:23:53;;;;;;;19.95;3.80;;;;;;;;;;5114630;27;20195;-68
2022/06/09 11:26:35;;;;;;;18.27;3.63;;;;;;;;;;5087417;27;20181;-68
2022/06/09 11:29:20;;;;;;;12.57;3.40;;;;;;;;;;5112559;28;20563;-68
2022/06/09 11:31:57;;;;;;;22.05;3.90;;;;;;;;;;5119080;27;20279;-68
2022/06/09 11:34:29;;;;;;;15.63;3.58;;;;;;;;;;5133091;27;20180;-69
2022/06/09 11:37:04;;;;;;;14.60;3.40;;;;;;;;;;5123586;27;20536;-69
2022/06/09 11:39:33;;;;;;;14.32;3.47;;;;;;;;;;5112056;27;20193;-70
2022/06/09 11:42:05;;;;;;;20.75;3.72;;;;;;;;;;5112663;28;20189;-69
2022/06/09 11:44:36;;;;;;;16.23;3.78;;;;;;;;;;5112800;28;20272;-69
2022/06/09 11:47:04;;;;;;;16.83;3.53;;;;;;;;;;5102302;28;20185;-69
2022/06/09 11:49:50;;;;;;;16.60;3.25;;;;;;;;;;5111562;28;20205;-69
2022/06/09 11:52:19;;;;;;;21.48;3.55;;;;;;;;;;5092288;28;20186;-68
2022/06/09 11:54:55;;;;;;;13.35;2.65;;;;;;;;;;5112130;28;20259;-69
2022/06/09 11:57:25;;;;;;;15.88;2.80;;;;;;;;;;5111308;28;20185;-69
2022/06/09 11:59:53;;;;;;;21.88;5.82;;;;;;;;;;5111802;28;20579;-69
2022/06/09 12:02:26;;;;;;;15.98;3.97;;;;;;;;;;5110796;28;20266;-69
2022/06/09 12:05:15;;;;;;;14.80;3.25;;;;;;;;;;5093687;28;20181;-68
2022/06/09 12:07:44;;;;;;;14.95;3.50;;;;;;;;;;5082437;28;20538;-68
2022/06/09 12:10:10;;;;;;;13.85;3.08;;;;;;;;;;5094027;28;20192;-70
2022/06/09 12:12:44;;;;;;;19.30;2.85;;;;;;;;;;5112081;28;20190;-67
2022/06/09 12:15:25;;;;;;;13.65;3.00;;;;;;;;;;5112281;28;20180;-69
2022/06/09 12:17:57;;;;;;;15.63;3.38;;;;;;;;;;5092933;28;20269;-69
2022/06/09 12:20:30;;;;;;;21.17;3.05;;;;;;;;;;5093498;28;20645;-70
2022/06/09 12:23:02;;;;;;;12.27;2.42;;;;;;;;;;5096015;27;20177;-68
2022/06/09 12:25:33;;;;;;;13.32;2.65;;;;;;;;;;5132303;27;20180;-69
2022/06/09 12:28:00;;;;;;;15.63;2.78;;;;;;;;;;5125127;27;20184;-68
2022/06/09 12:30:32;;;;;;;19.70;3.28;;;;;;;;;;5113965;27;20196;-69
2022/06/09 12:33:17;;;;;;;13.30;2.80;;;;;;;;;;5113370;27;20212;-69
2022/06/09 12:35:50;;;;;;;14.15;3.45;;;;;;;;;;5132255;27;20263;-68
2022/06/09 12:38:19;;;;;;;18.45;3.20;;;;;;;;;;5091325;28;20193;-69
2022/06/09 12:40:53;;;;;;;13.98;2.67;;;;;;;;;;5111735;28;20212;-68
2022/06/09 12:43:23;;;;;;;13.38;3.05;;;;;;;;;;5093172;28;20201;-69
2022/06/09 12:46:08;;;;;;;15.00;2.95;;;;;;;;;;5110927;27;20193;-69
2022/06/09 12:48:35;;;;;;;24.17;3.47;;;;;;;;;;5093338;28;20180;-69
2022/06/09 12:51:04;;;;;;;24.80;3.40;;;;;;;;;;5076440;28;20230;-68
2022/06/09 12:53:35;;;;;;;19.83;3.70;;;;;;;;;;5111273;28;20285;-66
2022/06/09 12:56:19;;;;;;;14.07;2.88;;;;;;;;;;5092236;28;20235;-67
2022/06/09 12:58:47;;;;;;;14.52;2.85;;;;;;;;;;5110666;28;20185;-69
2022/06/09 13:01:15;;;;;;;14.15;2.90;;;;;;;;;;5092548;28;20201;-68
2022/06/09 13:03:43;;;;;;;9.52;2.53;;;;;;;;;;5111071;28;20230;-69
2022/06/09 13:06:22;;;;;;;7.63;2.63;;;;;;;;;;5110415;27;20649;-68
2022/06/09 13:08:50;;;;;;;14.18;2.65;;;;;;;;;;5111198;28;20181;-69
2022/06/09 13:14:19;;;;;;;14.15;3.35;;;;;;;;;;5111015;28;20203;-69
2022/06/09 13:16:47;;;;;;;14.40;2.65;;;;;;;;;;5109919;28;20558;-69
2022/06/09 13:19:17;;;;;;;17.38;3.10;;;;;;;;;;5110935;28;20209;-69
2022/06/09 13:21:44;;;;;;;13.90;2.92;;;;;;;;;;5110825;28;20181;-67
2022/06/09 13:24:15;;;;;;;14.48;2.67;;;;;;;;;;5092513;28;20185;-68
2022/06/09 13:26:43;;;;;;;15.85;3.08;;;;;;;;;;5109844;28;20601;-68
2022/06/09 13:29:11;;;;;;;10.90;2.22;;;;;;;;;;5110607;28;20241;-68
2022/06/09 13:31:43;;;;;;;11.00;2.65;;;;;;;;;;5092303;28;20224;-69
2022/06/09 13:34:12;;;;;;;16.13;2.92;;;;;;;;;;5092194;28;20184;-68
2022/06/09 13:36:41;;;;;;;15.00;2.50;;;;;;;;;;5109703;28;20200;-68
2022/06/09 13:39:22;;;;;;;14.30;2.67;;;;;;;;;;5110302;27;20292;-68
2022/06/09 13:41:49;;;;;;;11.10;2.30;;;;;;;;;;5110118;28;20192;-68
2022/06/09 13:44:17;;;;;;;14.98;3.00;;;;;;;;;;5109185;28;20636;-68
2022/06/09 13:47:10;;;;;;;9.95;2.33;;;;;;;;;;5109667;28;20257;-68
2022/06/09 13:49:41;;;;;;;13.90;2.50;;;;;;;;;;5110562;28;20204;-68
2022/06/09 13:52:24;;;;;;;11.68;2.70;;;;;;;;;;5091824;28;20185;-69
2022/06/09 13:54:51;;;;;;;14.88;3.55;;;;;;;;;;5092352;28;20269;-68
2022/06/09 13:57:20;;;;;;;14.38;2.70;;;;;;;;;;5107890;28;20393;-67
2022/06/09 13:59:46;;;;;;;10.32;2.03;;;;;;;;;;5110203;28;20311;-68
2022/06/09 14:02:16;;;;;;;9.18;2.30;;;;;;;;;;5110097;28;20189;-69
2022/06/09 14:04:42;;;;;;;14.27;2.70;;;;;;;;;;5090916;28;20192;-69
2022/06/09 14:07:20;;;;;;;11.32;2.13;;;;;;;;;;5110237;28;20189;-68
2022/06/09 14:09:47;;;;;;;17.88;3.40;;;;;;;;;;5110232;28;20702;-68
2022/06/09 14:12:13;;;;;;;11.75;2.60;;;;;;;;;;5109844;28;20330;-69
2022/06/09 14:14:40;;;;;;;15.38;2.47;;;;;;;;;;5110075;28;20188;-68
2022/06/09 14:17:06;;;;;;;16.42;2.35;;;;;;;;;;5109015;28;20181;-68
2022/06/09 14:19:32;;;;;;;14.85;2.83;;;;;;;;;;5109954;28;20786;-66
2022/06/09 14:21:58;;;;;;;15.23;2.42;;;;;;;;;;5110194;28;20606;-68
2022/06/09 14:24:25;;;;;;;16.05;2.65;;;;;;;;;;5109292;28;20193;-68
2022/06/09 14:26:53;;;;;;;12.65;2.33;;;;;;;;;;5091531;28;20189;-68
2022/06/09 14:29:21;;;;;;;14.25;2.85;;;;;;;;;;5109270;28;20223;-67
2022/06/09 14:31:48;;;;;;;11.52;2.20;;;;;;;;;;5108277;28;20272;-68
2022/06/09 14:34:15;;;;;;;14.30;2.47;;;;;;;;;;5110000;28;20257;-68
2022/06/09 14:36:42;;;;;;;12.15;2.20;;;;;;;;;;5091382;28;20181;-69
2022/06/09 14:39:08;;;;;;;16.00;2.33;;;;;;;;;;5109797;28;20691;-68
2022/06/09 14:41:35;;;;;;;12.80;2.35;;;;;;;;;;5090064;28;20646;-68
2022/06/09 14:44:01;;;;;;;12.48;2.55;;;;;;;;;;5109617;28;20276;-68
2022/06/09 14:46:29;;;;;;;16.23;2.67;;;;;;;;;;5109729;28;20608;-69
2022/06/09 14:48:55;;;;;;;16.20;4.63;;;;;;;;;;5109758;28;20563;-67
2022/06/09 14:51:22;;;;;;;8.40;2.00;;;;;;;;;;5109006;28;20234;-67
2022/06/09 14:53:48;;;;;;;15.60;3.10;;;;;;;;;;5108007;28;20192;-68
2022/06/09 14:56:16;;;;;;;14.20;2.30;;;;;;;;;;5106581;28;20284;-68
2022/06/09 14:58:42;;;;;;;13.10;2.55;;;;;;;;;;5129605;28;20265;-70
2022/06/09 15:01:10;;;;;;;13.52;2.30;;;;;;;;;;5105572;28;20647;-68
2022/06/09 15:03:36;;;;;;;12.70;1.98;;;;;;;;;;5109257;28;20193;-70
2022/06/09 15:06:03;;;;;;;12.82;2.50;;;;;;;;;;5090040;28;20181;-70